sensor_id;sensor_type;location;lat;lon;timestamp;P1;durP1;ratioP1;P2;durP2;ratioP2
36475;SDS011;56615;42.682;23.364;2023-07-16T00:00:15;12.93;;;8.63;;
36475;SDS011;56615;42.682;23.364;2023-07-16T00:02:49;14.98;;;8.27;;
36475;SDS011;56615;42.682;23.364;2023-07-16T00:05:16;12.73;;;7.55;;
36475;SDS011;56615;42.682;23.364;2023-07-16T00:07:41;13.43;;;7.00;;
36475;SDS011;56615;42.682;23.364;2023-07-16T00:10:08;12.88;;;6.97;;
36475;SDS011;56615;42.682;23.364;2023-07-16T00:12:34;12.30;;;6.90;;
36475;SDS011;56615;42.682;23.364;2023-07-16T00:15:01;16.17;;;7.53;;
36475;SDS011;56615;42.682;23.364;2023-07-16T00:17:27;14.32;;;6.75;;
36475;SDS011;56615;42.682;23.364;2023-07-16T00:19:52;11.02;;;6.80;;
36475;SDS011;56615;42.682;23.364;2023-07-16T00:22:19;13.93;;;6.50;;
36475;SDS011;56615;42.682;23.364;2023-07-16T00:24:45;11.98;;;7.03;;
36475;SDS011;56615;42.682;23.364;2023-07-16T00:27:10;12.65;;;6.60;;
36475;SDS011;56615;42.682;23.364;2023-07-16T00:29:35;11.30;;;6.25;;
36475;SDS011;56615;42.682;23.364;2023-07-16T00:32:01;11.88;;;6.82;;
36475;SDS011;56615;42.682;23.364;2023-07-16T00:34:27;12.32;;;6.55;;
36475;SDS011;56615;42.682;23.364;2023-07-16T00:36:54;12.18;;;6.35;;
36475;SDS011;56615;42.682;23.364;2023-07-16T00:39:27;11.25;;;6.53;;
36475;SDS011;56615;42.682;23.364;2023-07-16T00:41:53;12.45;;;6.32;;
36475;SDS011;56615;42.682;23.364;2023-07-16T00:44:20;13.10;;;5.80;;
36475;SDS011;56615;42.682;23.364;2023-07-16T00:46:49;14.85;;;6.30;;
36475;SDS011;56615;42.682;23.364;2023-07-16T00:49:15;10.10;;;5.72;;
36475;SDS011;56615;42.682;23.364;2023-07-16T00:51:42;12.75;;;6.20;;
36475;SDS011;56615;42.682;23.364;2023-07-16T00:54:09;11.02;;;6.05;;
36475;SDS011;56615;42.682;23.364;2023-07-16T00:56:36;10.23;;;5.45;;
36475;SDS011;56615;42.682;23.364;2023-07-16T00:59:02;11.52;;;5.75;;
36475;SDS011;56615;42.682;23.364;2023-07-16T01:01:28;10.38;;;5.47;;
36475;SDS011;56615;42.682;23.364;2023-07-16T01:03:57;10.80;;;6.40;;
36475;SDS011;56615;42.682;23.364;2023-07-16T01:08:55;11.98;;;5.80;;
36475;SDS011;56615;42.682;23.364;2023-07-16T01:11:23;10.05;;;5.63;;
36475;SDS011;56615;42.682;23.364;2023-07-16T01:13:49;9.23;;;5.35;;
36475;SDS011;56615;42.682;23.364;2023-07-16T01:16:22;11.27;;;5.57;;
36475;SDS011;56615;42.682;23.364;2023-07-16T01:18:48;10.98;;;5.50;;
36475;SDS011;56615;42.682;23.364;2023-07-16T01:21:18;12.38;;;5.70;;
36475;SDS011;56615;42.682;23.364;2023-07-16T01:23:50;10.10;;;5.30;;
36475;SDS011;56615;42.682;23.364;2023-07-16T01:29:29;13.80;;;5.72;;
36475;SDS011;56615;42.682;23.364;2023-07-16T01:32:03;15.63;;;5.80;;
36475;SDS011;56615;42.682;23.364;2023-07-16T01:34:30;11.02;;;5.18;;
36475;SDS011;56615;42.682;23.364;2023-07-16T01:36:58;12.43;;;6.03;;
36475;SDS011;56615;42.682;23.364;2023-07-16T01:39:27;11.73;;;5.88;;
36475;SDS011;56615;42.682;23.364;2023-07-16T01:41:53;15.70;;;6.25;;
36475;SDS011;56615;42.682;23.364;2023-07-16T01:44:18;12.85;;;6.07;;
36475;SDS011;56615;42.682;23.364;2023-07-16T01:46:45;9.00;;;5.40;;
36475;SDS011;56615;42.682;23.364;2023-07-16T01:49:17;11.82;;;5.28;;
36475;SDS011;56615;42.682;23.364;2023-07-16T01:51:43;10.43;;;4.95;;
36475;SDS011;56615;42.682;23.364;2023-07-16T01:54:09;10.45;;;5.03;;
36475;SDS011;56615;42.682;23.364;2023-07-16T01:56:35;9.80;;;4.90;;
36475;SDS011;56615;42.682;23.364;2023-07-16T01:59:01;11.00;;;4.78;;
36475;SDS011;56615;42.682;23.364;2023-07-16T02:01:28;9.60;;;4.78;;
36475;SDS011;56615;42.682;23.364;2023-07-16T02:03:54;9.45;;;4.78;;
36475;SDS011;56615;42.682;23.364;2023-07-16T02:06:20;9.40;;;4.57;;
36475;SDS011;56615;42.682;23.364;2023-07-16T02:08:45;8.20;;;4.80;;
36475;SDS011;56615;42.682;23.364;2023-07-16T02:11:13;8.63;;;4.93;;
36475;SDS011;56615;42.682;23.364;2023-07-16T02:13:38;10.88;;;5.40;;
36475;SDS011;56615;42.682;23.364;2023-07-16T02:16:04;11.15;;;5.43;;
36475;SDS011;56615;42.682;23.364;2023-07-16T02:18:29;10.68;;;5.97;;
36475;SDS011;56615;42.682;23.364;2023-07-16T02:20:55;12.88;;;6.13;;
36475;SDS011;56615;42.682;23.364;2023-07-16T02:23:21;10.13;;;5.15;;
36475;SDS011;56615;42.682;23.364;2023-07-16T02:25:47;9.65;;;5.60;;
36475;SDS011;56615;42.682;23.364;2023-07-16T02:28:13;10.50;;;6.32;;
36475;SDS011;56615;42.682;23.364;2023-07-16T02:30:40;12.48;;;6.00;;
36475;SDS011;56615;42.682;23.364;2023-07-16T02:33:08;9.77;;;6.03;;
36475;SDS011;56615;42.682;23.364;2023-07-16T02:35:34;12.40;;;5.68;;
36475;SDS011;56615;42.682;23.364;2023-07-16T02:38:00;8.90;;;5.35;;
36475;SDS011;56615;42.682;23.364;2023-07-16T02:40:27;9.73;;;5.50;;
36475;SDS011;56615;42.682;23.364;2023-07-16T02:42:52;11.90;;;4.75;;
36475;SDS011;56615;42.682;23.364;2023-07-16T02:45:20;9.57;;;5.15;;
36475;SDS011;56615;42.682;23.364;2023-07-16T02:47:45;8.77;;;4.60;;
36475;SDS011;56615;42.682;23.364;2023-07-16T02:50:10;10.63;;;4.63;;
36475;SDS011;56615;42.682;23.364;2023-07-16T02:52:36;10.45;;;4.75;;
36475;SDS011;56615;42.682;23.364;2023-07-16T02:55:01;8.88;;;4.43;;
36475;SDS011;56615;42.682;23.364;2023-07-16T02:57:28;9.00;;;4.22;;
36475;SDS011;56615;42.682;23.364;2023-07-16T02:59:54;9.32;;;4.57;;
36475;SDS011;56615;42.682;23.364;2023-07-16T03:02:19;7.47;;;4.40;;
36475;SDS011;56615;42.682;23.364;2023-07-16T03:04:44;7.25;;;4.30;;
36475;SDS011;56615;42.682;23.364;2023-07-16T03:07:11;7.97;;;4.35;;
36475;SDS011;56615;42.682;23.364;2023-07-16T03:09:36;10.68;;;4.57;;
36475;SDS011;56615;42.682;23.364;2023-07-16T03:12:02;9.05;;;5.13;;
36475;SDS011;56615;42.682;23.364;2023-07-16T03:14:27;10.65;;;5.10;;
36475;SDS011;56615;42.682;23.364;2023-07-16T03:16:53;11.85;;;5.03;;
36475;SDS011;56615;42.682;23.364;2023-07-16T03:19:19;8.93;;;5.60;;
36475;SDS011;56615;42.682;23.364;2023-07-16T03:21:50;12.07;;;5.60;;
36475;SDS011;56615;42.682;23.364;2023-07-16T03:24:16;9.27;;;5.13;;
36475;SDS011;56615;42.682;23.364;2023-07-16T03:26:42;10.52;;;5.05;;
36475;SDS011;56615;42.682;23.364;2023-07-16T03:29:08;9.95;;;4.40;;
36475;SDS011;56615;42.682;23.364;2023-07-16T03:31:34;9.75;;;4.75;;
36475;SDS011;56615;42.682;23.364;2023-07-16T03:34:00;8.13;;;4.53;;
36475;SDS011;56615;42.682;23.364;2023-07-16T03:36:25;10.70;;;4.85;;
36475;SDS011;56615;42.682;23.364;2023-07-16T03:38:51;10.90;;;4.43;;
36475;SDS011;56615;42.682;23.364;2023-07-16T03:41:19;9.23;;;4.55;;
36475;SDS011;56615;42.682;23.364;2023-07-16T03:43:44;9.10;;;4.53;;
36475;SDS011;56615;42.682;23.364;2023-07-16T03:46:12;7.72;;;4.45;;
36475;SDS011;56615;42.682;23.364;2023-07-16T03:48:39;9.23;;;4.90;;
36475;SDS011;56615;42.682;23.364;2023-07-16T03:51:06;9.98;;;4.32;;
36475;SDS011;56615;42.682;23.364;2023-07-16T03:53:34;12.30;;;4.93;;
36475;SDS011;56615;42.682;23.364;2023-07-16T03:56:01;11.82;;;4.55;;
36475;SDS011;56615;42.682;23.364;2023-07-16T03:58:30;10.82;;;4.40;;
36475;SDS011;56615;42.682;23.364;2023-07-16T04:00:58;10.77;;;4.20;;
36475;SDS011;56615;42.682;23.364;2023-07-16T04:03:25;12.93;;;4.15;;
36475;SDS011;56615;42.682;23.364;2023-07-16T04:06:09;7.05;;;3.90;;
36475;SDS011;56615;42.682;23.364;2023-07-16T04:08:38;10.10;;;4.68;;
36475;SDS011;56615;42.682;23.364;2023-07-16T04:11:04;10.32;;;4.10;;
36475;SDS011;56615;42.682;23.364;2023-07-16T04:13:36;8.98;;;4.50;;
36475;SDS011;56615;42.682;23.364;2023-07-16T04:16:05;10.93;;;4.68;;
36475;SDS011;56615;42.682;23.364;2023-07-16T04:18:30;12.15;;;3.95;;
36475;SDS011;56615;42.682;23.364;2023-07-16T04:20:59;8.10;;;4.18;;
36475;SDS011;56615;42.682;23.364;2023-07-16T04:23:27;11.02;;;4.07;;
36475;SDS011;56615;42.682;23.364;2023-07-16T04:25:55;9.88;;;3.78;;
36475;SDS011;56615;42.682;23.364;2023-07-16T04:28:22;7.32;;;3.53;;
36475;SDS011;56615;42.682;23.364;2023-07-16T04:33:32;7.25;;;3.40;;
36475;SDS011;56615;42.682;23.364;2023-07-16T04:36:04;9.90;;;3.38;;
36475;SDS011;56615;42.682;23.364;2023-07-16T04:41:43;9.95;;;3.53;;
36475;SDS011;56615;42.682;23.364;2023-07-16T04:44:09;8.65;;;3.92;;
36475;SDS011;56615;42.682;23.364;2023-07-16T04:46:34;8.10;;;3.60;;
36475;SDS011;56615;42.682;23.364;2023-07-16T04:49:00;8.93;;;3.50;;
36475;SDS011;56615;42.682;23.364;2023-07-16T04:51:26;10.18;;;3.47;;
36475;SDS011;56615;42.682;23.364;2023-07-16T04:53:52;8.85;;;3.40;;
36475;SDS011;56615;42.682;23.364;2023-07-16T04:56:18;6.03;;;3.15;;
36475;SDS011;56615;42.682;23.364;2023-07-16T04:58:43;6.68;;;3.30;;
36475;SDS011;56615;42.682;23.364;2023-07-16T05:01:18;7.15;;;2.90;;
36475;SDS011;56615;42.682;23.364;2023-07-16T05:03:46;5.38;;;3.30;;
36475;SDS011;56615;42.682;23.364;2023-07-16T05:06:11;5.57;;;3.30;;
36475;SDS011;56615;42.682;23.364;2023-07-16T05:08:36;7.28;;;3.38;;
36475;SDS011;56615;42.682;23.364;2023-07-16T05:11:02;7.32;;;3.35;;
36475;SDS011;56615;42.682;23.364;2023-07-16T05:13:28;8.05;;;3.35;;
36475;SDS011;56615;42.682;23.364;2023-07-16T05:15:53;7.13;;;3.28;;
36475;SDS011;56615;42.682;23.364;2023-07-16T05:18:19;5.85;;;3.00;;
36475;SDS011;56615;42.682;23.364;2023-07-16T05:20:49;6.03;;;3.03;;
36475;SDS011;56615;42.682;23.364;2023-07-16T05:23:14;7.18;;;2.88;;
36475;SDS011;56615;42.682;23.364;2023-07-16T05:25:45;6.03;;;3.22;;
36475;SDS011;56615;42.682;23.364;2023-07-16T05:28:12;6.30;;;2.70;;
36475;SDS011;56615;42.682;23.364;2023-07-16T05:30:37;9.48;;;2.80;;
36475;SDS011;56615;42.682;23.364;2023-07-16T05:33:02;6.60;;;3.00;;
36475;SDS011;56615;42.682;23.364;2023-07-16T05:35:28;7.43;;;2.67;;
36475;SDS011;56615;42.682;23.364;2023-07-16T05:37:53;6.18;;;2.90;;
36475;SDS011;56615;42.682;23.364;2023-07-16T05:40:19;7.43;;;3.15;;
36475;SDS011;56615;42.682;23.364;2023-07-16T05:42:44;8.23;;;3.30;;
36475;SDS011;56615;42.682;23.364;2023-07-16T05:45:10;6.78;;;2.97;;
36475;SDS011;56615;42.682;23.364;2023-07-16T05:47:35;6.20;;;2.70;;
36475;SDS011;56615;42.682;23.364;2023-07-16T05:50:01;6.55;;;2.50;;
36475;SDS011;56615;42.682;23.364;2023-07-16T05:52:26;5.05;;;2.88;;
36475;SDS011;56615;42.682;23.364;2023-07-16T05:54:51;8.38;;;2.80;;
36475;SDS011;56615;42.682;23.364;2023-07-16T05:57:17;5.63;;;2.92;;
36475;SDS011;56615;42.682;23.364;2023-07-16T05:59:42;7.22;;;3.03;;
36475;SDS011;56615;42.682;23.364;2023-07-16T06:02:14;6.18;;;3.13;;
36475;SDS011;56615;42.682;23.364;2023-07-16T06:04:45;8.13;;;2.70;;
36475;SDS011;56615;42.682;23.364;2023-07-16T06:07:12;6.18;;;2.65;;
36475;SDS011;56615;42.682;23.364;2023-07-16T06:09:38;5.65;;;2.97;;
36475;SDS011;56615;42.682;23.364;2023-07-16T06:12:03;6.57;;;2.85;;
36475;SDS011;56615;42.682;23.364;2023-07-16T06:14:29;4.35;;;2.53;;
36475;SDS011;56615;42.682;23.364;2023-07-16T06:16:55;8.07;;;2.75;;
36475;SDS011;56615;42.682;23.364;2023-07-16T06:19:22;10.57;;;2.90;;
36475;SDS011;56615;42.682;23.364;2023-07-16T06:21:51;4.95;;;2.90;;
36475;SDS011;56615;42.682;23.364;2023-07-16T06:24:19;6.95;;;2.80;;
36475;SDS011;56615;42.682;23.364;2023-07-16T06:26:46;5.53;;;2.90;;
36475;SDS011;56615;42.682;23.364;2023-07-16T06:29:12;5.30;;;2.60;;
36475;SDS011;56615;42.682;23.364;2023-07-16T06:31:53;7.47;;;2.80;;
36475;SDS011;56615;42.682;23.364;2023-07-16T06:34:21;7.90;;;2.92;;
36475;SDS011;56615;42.682;23.364;2023-07-16T06:36:47;5.35;;;2.67;;
36475;SDS011;56615;42.682;23.364;2023-07-16T06:39:21;7.30;;;2.92;;
36475;SDS011;56615;42.682;23.364;2023-07-16T06:42:00;3.67;;;2.53;;
36475;SDS011;56615;42.682;23.364;2023-07-16T06:44:28;5.57;;;2.50;;
36475;SDS011;56615;42.682;23.364;2023-07-16T06:46:53;9.80;;;3.20;;
36475;SDS011;56615;42.682;23.364;2023-07-16T06:49:19;6.07;;;2.80;;
36475;SDS011;56615;42.682;23.364;2023-07-16T06:51:44;5.10;;;2.67;;
36475;SDS011;56615;42.682;23.364;2023-07-16T06:54:13;5.93;;;2.70;;
36475;SDS011;56615;42.682;23.364;2023-07-16T06:56:38;4.43;;;2.75;;
36475;SDS011;56615;42.682;23.364;2023-07-16T06:59:08;5.55;;;2.65;;
36475;SDS011;56615;42.682;23.364;2023-07-16T07:01:36;11.15;;;2.83;;
36475;SDS011;56615;42.682;23.364;2023-07-16T07:04:05;5.97;;;2.85;;
36475;SDS011;56615;42.682;23.364;2023-07-16T07:06:37;5.15;;;2.90;;
36475;SDS011;56615;42.682;23.364;2023-07-16T07:09:03;6.50;;;3.00;;
36475;SDS011;56615;42.682;23.364;2023-07-16T07:11:29;8.93;;;2.38;;
36475;SDS011;56615;42.682;23.364;2023-07-16T07:13:55;8.43;;;2.60;;
36475;SDS011;56615;42.682;23.364;2023-07-16T07:16:23;5.68;;;2.78;;
36475;SDS011;56615;42.682;23.364;2023-07-16T07:18:50;4.55;;;2.60;;
36475;SDS011;56615;42.682;23.364;2023-07-16T07:21:16;5.03;;;2.80;;
36475;SDS011;56615;42.682;23.364;2023-07-16T07:23:41;6.22;;;2.85;;
36475;SDS011;56615;42.682;23.364;2023-07-16T07:26:07;8.75;;;2.65;;
36475;SDS011;56615;42.682;23.364;2023-07-16T07:28:33;7.68;;;2.50;;
36475;SDS011;56615;42.682;23.364;2023-07-16T07:30:59;6.13;;;3.00;;
36475;SDS011;56615;42.682;23.364;2023-07-16T07:33:25;5.25;;;2.90;;
36475;SDS011;56615;42.682;23.364;2023-07-16T07:35:52;5.70;;;2.47;;
36475;SDS011;56615;42.682;23.364;2023-07-16T07:38:19;5.55;;;2.83;;
36475;SDS011;56615;42.682;23.364;2023-07-16T07:40:44;7.53;;;3.13;;
36475;SDS011;56615;42.682;23.364;2023-07-16T07:43:10;6.10;;;3.00;;
36475;SDS011;56615;42.682;23.364;2023-07-16T07:45:37;6.18;;;2.97;;
36475;SDS011;56615;42.682;23.364;2023-07-16T07:48:05;7.10;;;3.00;;
36475;SDS011;56615;42.682;23.364;2023-07-16T07:50:31;6.30;;;3.30;;
36475;SDS011;56615;42.682;23.364;2023-07-16T07:52:57;6.78;;;3.45;;
36475;SDS011;56615;42.682;23.364;2023-07-16T07:55:22;4.65;;;2.95;;
36475;SDS011;56615;42.682;23.364;2023-07-16T07:57:47;5.47;;;3.10;;
36475;SDS011;56615;42.682;23.364;2023-07-16T08:00:14;7.20;;;3.22;;
36475;SDS011;56615;42.682;23.364;2023-07-16T08:02:41;7.53;;;3.60;;
36475;SDS011;56615;42.682;23.364;2023-07-16T08:05:08;7.07;;;3.42;;
36475;SDS011;56615;42.682;23.364;2023-07-16T08:07:50;5.45;;;3.13;;
36475;SDS011;56615;42.682;23.364;2023-07-16T08:10:17;12.63;;;3.70;;
36475;SDS011;56615;42.682;23.364;2023-07-16T08:12:51;8.63;;;3.72;;
36475;SDS011;56615;42.682;23.364;2023-07-16T08:15:25;7.57;;;3.58;;
36475;SDS011;56615;42.682;23.364;2023-07-16T08:17:53;10.57;;;3.95;;
36475;SDS011;56615;42.682;23.364;2023-07-16T08:20:19;8.73;;;3.80;;
36475;SDS011;56615;42.682;23.364;2023-07-16T08:22:45;5.95;;;3.78;;
36475;SDS011;56615;42.682;23.364;2023-07-16T08:25:10;7.28;;;3.60;;
36475;SDS011;56615;42.682;23.364;2023-07-16T08:27:35;9.45;;;4.15;;
36475;SDS011;56615;42.682;23.364;2023-07-16T08:30:03;9.27;;;4.20;;
36475;SDS011;56615;42.682;23.364;2023-07-16T08:32:28;9.07;;;4.30;;
36475;SDS011;56615;42.682;23.364;2023-07-16T08:34:54;8.45;;;3.97;;
36475;SDS011;56615;42.682;23.364;2023-07-16T08:37:21;11.50;;;4.00;;
36475;SDS011;56615;42.682;23.364;2023-07-16T08:39:50;5.90;;;3.72;;
36475;SDS011;56615;42.682;23.364;2023-07-16T08:42:18;6.63;;;4.00;;
36475;SDS011;56615;42.682;23.364;2023-07-16T08:44:46;8.75;;;4.47;;
36475;SDS011;56615;42.682;23.364;2023-07-16T08:47:14;6.55;;;4.13;;
36475;SDS011;56615;42.682;23.364;2023-07-16T08:49:40;9.73;;;4.40;;
36475;SDS011;56615;42.682;23.364;2023-07-16T08:52:15;10.90;;;4.93;;
36475;SDS011;56615;42.682;23.364;2023-07-16T08:54:43;7.95;;;4.90;;
36475;SDS011;56615;42.682;23.364;2023-07-16T08:57:09;9.88;;;5.10;;
36475;SDS011;56615;42.682;23.364;2023-07-16T08:59:35;9.90;;;4.90;;
36475;SDS011;56615;42.682;23.364;2023-07-16T09:02:03;7.57;;;4.43;;
36475;SDS011;56615;42.682;23.364;2023-07-16T09:04:29;9.63;;;4.90;;
36475;SDS011;56615;42.682;23.364;2023-07-16T09:06:56;11.45;;;4.63;;
36475;SDS011;56615;42.682;23.364;2023-07-16T09:09:23;8.05;;;4.70;;
36475;SDS011;56615;42.682;23.364;2023-07-16T09:11:49;10.30;;;5.30;;
36475;SDS011;56615;42.682;23.364;2023-07-16T09:14:19;10.15;;;5.07;;
36475;SDS011;56615;42.682;23.364;2023-07-16T09:16:48;12.00;;;5.03;;
36475;SDS011;56615;42.682;23.364;2023-07-16T09:19:17;12.57;;;5.22;;
36475;SDS011;56615;42.682;23.364;2023-07-16T09:21:52;9.43;;;5.32;;
36475;SDS011;56615;42.682;23.364;2023-07-16T09:24:23;8.98;;;5.45;;
36475;SDS011;56615;42.682;23.364;2023-07-16T09:26:49;14.27;;;5.40;;
36475;SDS011;56615;42.682;23.364;2023-07-16T09:29:20;13.55;;;6.10;;
36475;SDS011;56615;42.682;23.364;2023-07-16T09:34:36;11.68;;;5.97;;
36475;SDS011;56615;42.682;23.364;2023-07-16T09:37:02;10.85;;;5.53;;
36475;SDS011;56615;42.682;23.364;2023-07-16T09:39:31;11.98;;;6.38;;
36475;SDS011;56615;42.682;23.364;2023-07-16T09:42:20;14.40;;;6.63;;
36475;SDS011;56615;42.682;23.364;2023-07-16T09:44:48;12.05;;;6.40;;
36475;SDS011;56615;42.682;23.364;2023-07-16T09:47:17;11.02;;;6.28;;
36475;SDS011;56615;42.682;23.364;2023-07-16T09:49:56;12.93;;;6.38;;
36475;SDS011;56615;42.682;23.364;2023-07-16T09:52:27;9.63;;;5.70;;
36475;SDS011;56615;42.682;23.364;2023-07-16T09:54:55;9.40;;;6.07;;
36475;SDS011;56615;42.682;23.364;2023-07-16T09:57:27;14.02;;;5.63;;
36475;SDS011;56615;42.682;23.364;2023-07-16T10:00:04;10.25;;;5.30;;
36475;SDS011;56615;42.682;23.364;2023-07-16T10:02:44;12.77;;;6.00;;
36475;SDS011;56615;42.682;23.364;2023-07-16T10:05:17;11.65;;;5.80;;
36475;SDS011;56615;42.682;23.364;2023-07-16T10:07:58;10.43;;;6.28;;
36475;SDS011;56615;42.682;23.364;2023-07-16T10:10:52;11.15;;;6.13;;
36475;SDS011;56615;42.682;23.364;2023-07-16T10:13:26;10.50;;;5.93;;
36475;SDS011;56615;42.682;23.364;2023-07-16T10:16:06;10.90;;;6.55;;
36475;SDS011;56615;42.682;23.364;2023-07-16T10:18:49;10.02;;;6.47;;
36475;SDS011;56615;42.682;23.364;2023-07-16T10:21:25;13.95;;;6.28;;
36475;SDS011;56615;42.682;23.364;2023-07-16T10:23:58;15.48;;;6.55;;
36475;SDS011;56615;42.682;23.364;2023-07-16T10:26:28;11.07;;;6.25;;
36475;SDS011;56615;42.682;23.364;2023-07-16T10:28:56;16.45;;;7.18;;
36475;SDS011;56615;42.682;23.364;2023-07-16T10:31:29;12.10;;;7.20;;
36475;SDS011;56615;42.682;23.364;2023-07-16T10:34:07;11.05;;;7.03;;
36475;SDS011;56615;42.682;23.364;2023-07-16T10:36:40;11.27;;;7.30;;
36475;SDS011;56615;42.682;23.364;2023-07-16T10:39:22;12.07;;;7.10;;
36475;SDS011;56615;42.682;23.364;2023-07-16T10:41:58;11.47;;;6.80;;
36475;SDS011;56615;42.682;23.364;2023-07-16T10:44:27;12.73;;;6.60;;
36475;SDS011;56615;42.682;23.364;2023-07-16T10:46:59;11.35;;;6.68;;
36475;SDS011;56615;42.682;23.364;2023-07-16T10:49:32;12.70;;;6.35;;
36475;SDS011;56615;42.682;23.364;2023-07-16T10:52:07;11.05;;;6.45;;
36475;SDS011;56615;42.682;23.364;2023-07-16T10:54:44;12.70;;;7.18;;
36475;SDS011;56615;42.682;23.364;2023-07-16T10:57:10;15.48;;;7.18;;
36475;SDS011;56615;42.682;23.364;2023-07-16T10:59:40;11.65;;;6.97;;
36475;SDS011;56615;42.682;23.364;2023-07-16T11:02:14;11.45;;;7.15;;
36475;SDS011;56615;42.682;23.364;2023-07-16T11:04:42;11.95;;;6.57;;
36475;SDS011;56615;42.682;23.364;2023-07-16T11:07:45;10.98;;;7.43;;
36475;SDS011;56615;42.682;23.364;2023-07-16T11:10:16;17.85;;;6.75;;
36475;SDS011;56615;42.682;23.364;2023-07-16T11:12:52;15.80;;;7.25;;
36475;SDS011;56615;42.682;23.364;2023-07-16T11:15:30;10.90;;;6.97;;
36475;SDS011;56615;42.682;23.364;2023-07-16T11:18:22;10.93;;;6.68;;
36475;SDS011;56615;42.682;23.364;2023-07-16T11:20:54;16.70;;;7.35;;
36475;SDS011;56615;42.682;23.364;2023-07-16T11:23:28;11.27;;;7.07;;
36475;SDS011;56615;42.682;23.364;2023-07-16T11:26:04;13.90;;;6.78;;
36475;SDS011;56615;42.682;23.364;2023-07-16T11:28:43;15.80;;;7.13;;
36475;SDS011;56615;42.682;23.364;2023-07-16T11:31:15;10.63;;;6.45;;
36475;SDS011;56615;42.682;23.364;2023-07-16T11:33:43;17.50;;;7.00;;
36475;SDS011;56615;42.682;23.364;2023-07-16T11:36:10;12.43;;;7.13;;
36475;SDS011;56615;42.682;23.364;2023-07-16T11:38:38;13.60;;;7.57;;
36475;SDS011;56615;42.682;23.364;2023-07-16T11:41:10;13.35;;;7.32;;
36475;SDS011;56615;42.682;23.364;2023-07-16T11:43:41;12.50;;;7.18;;
36475;SDS011;56615;42.682;23.364;2023-07-16T11:46:16;13.98;;;7.00;;
36475;SDS011;56615;42.682;23.364;2023-07-16T11:48:44;10.90;;;6.80;;
36475;SDS011;56615;42.682;23.364;2023-07-16T11:51:11;11.15;;;6.63;;
36475;SDS011;56615;42.682;23.364;2023-07-16T11:53:38;14.13;;;6.70;;
36475;SDS011;56615;42.682;23.364;2023-07-16T11:56:08;10.98;;;6.80;;
36475;SDS011;56615;42.682;23.364;2023-07-16T11:58:37;16.80;;;7.97;;
36475;SDS011;56615;42.682;23.364;2023-07-16T12:01:06;14.23;;;7.20;;
36475;SDS011;56615;42.682;23.364;2023-07-16T12:03:32;13.55;;;7.03;;
36475;SDS011;56615;42.682;23.364;2023-07-16T12:06:07;9.95;;;7.20;;
36475;SDS011;56615;42.682;23.364;2023-07-16T12:08:35;13.75;;;7.35;;
36475;SDS011;56615;42.682;23.364;2023-07-16T12:11:07;12.73;;;7.32;;
36475;SDS011;56615;42.682;23.364;2023-07-16T12:13:35;11.77;;;7.22;;
36475;SDS011;56615;42.682;23.364;2023-07-16T12:16:23;12.48;;;6.68;;
36475;SDS011;56615;42.682;23.364;2023-07-16T12:19:03;15.27;;;6.85;;
36475;SDS011;56615;42.682;23.364;2023-07-16T12:21:33;13.13;;;7.43;;
36475;SDS011;56615;42.682;23.364;2023-07-16T12:24:07;12.23;;;7.05;;
36475;SDS011;56615;42.682;23.364;2023-07-16T12:26:53;15.27;;;7.10;;
36475;SDS011;56615;42.682;23.364;2023-07-16T12:29:22;13.90;;;7.35;;
36475;SDS011;56615;42.682;23.364;2023-07-16T12:31:49;10.70;;;6.35;;
36475;SDS011;56615;42.682;23.364;2023-07-16T12:34:31;16.20;;;7.47;;
36475;SDS011;56615;42.682;23.364;2023-07-16T12:37:12;12.75;;;6.68;;
36475;SDS011;56615;42.682;23.364;2023-07-16T12:39:48;10.65;;;6.40;;
36475;SDS011;56615;42.682;23.364;2023-07-16T12:42:17;10.60;;;6.72;;
36475;SDS011;56615;42.682;23.364;2023-07-16T12:44:45;13.15;;;6.60;;
36475;SDS011;56615;42.682;23.364;2023-07-16T12:47:25;13.30;;;7.00;;
36475;SDS011;56615;42.682;23.364;2023-07-16T12:49:52;12.73;;;6.90;;
36475;SDS011;56615;42.682;23.364;2023-07-16T12:52:23;12.60;;;6.32;;
36475;SDS011;56615;42.682;23.364;2023-07-16T12:57:25;12.57;;;7.18;;
36475;SDS011;56615;42.682;23.364;2023-07-16T12:59:58;11.68;;;6.28;;
36475;SDS011;56615;42.682;23.364;2023-07-16T13:02:28;12.02;;;6.13;;
36475;SDS011;56615;42.682;23.364;2023-07-16T13:04:57;10.35;;;6.63;;
36475;SDS011;56615;42.682;23.364;2023-07-16T13:07:24;12.50;;;5.82;;
36475;SDS011;56615;42.682;23.364;2023-07-16T13:09:50;10.02;;;6.43;;
36475;SDS011;56615;42.682;23.364;2023-07-16T13:12:17;9.98;;;6.50;;
36475;SDS011;56615;42.682;23.364;2023-07-16T13:14:44;12.32;;;6.65;;
36475;SDS011;56615;42.682;23.364;2023-07-16T13:17:13;11.73;;;6.35;;
36475;SDS011;56615;42.682;23.364;2023-07-16T13:19:47;12.90;;;7.03;;
36475;SDS011;56615;42.682;23.364;2023-07-16T13:22:22;12.40;;;6.63;;
36475;SDS011;56615;42.682;23.364;2023-07-16T13:24:49;10.00;;;6.05;;
36475;SDS011;56615;42.682;23.364;2023-07-16T13:27:22;13.68;;;6.38;;
36475;SDS011;56615;42.682;23.364;2023-07-16T13:29:50;9.73;;;6.15;;
36475;SDS011;56615;42.682;23.364;2023-07-16T13:32:20;10.63;;;6.07;;
36475;SDS011;56615;42.682;23.364;2023-07-16T13:34:49;10.65;;;6.57;;
36475;SDS011;56615;42.682;23.364;2023-07-16T13:37:15;9.60;;;6.20;;
36475;SDS011;56615;42.682;23.364;2023-07-16T13:39:42;11.40;;;6.20;;
36475;SDS011;56615;42.682;23.364;2023-07-16T13:42:14;15.38;;;6.68;;
36475;SDS011;56615;42.682;23.364;2023-07-16T13:44:53;13.73;;;6.75;;
36475;SDS011;56615;42.682;23.364;2023-07-16T13:47:25;12.82;;;6.13;;
36475;SDS011;56615;42.682;23.364;2023-07-16T13:49:54;13.27;;;6.00;;
36475;SDS011;56615;42.682;23.364;2023-07-16T13:52:43;12.27;;;6.63;;
36475;SDS011;56615;42.682;23.364;2023-07-16T13:55:22;11.23;;;6.18;;
36475;SDS011;56615;42.682;23.364;2023-07-16T13:58:03;11.20;;;6.75;;
36475;SDS011;56615;42.682;23.364;2023-07-16T14:03:07;14.15;;;6.50;;
36475;SDS011;56615;42.682;23.364;2023-07-16T14:05:36;12.10;;;6.40;;
36475;SDS011;56615;42.682;23.364;2023-07-16T14:08:16;15.60;;;6.30;;
36475;SDS011;56615;42.682;23.364;2023-07-16T14:10:52;15.43;;;6.13;;
36475;SDS011;56615;42.682;23.364;2023-07-16T14:13:30;9.77;;;5.57;;
36475;SDS011;56615;42.682;23.364;2023-07-16T14:16:01;12.00;;;6.57;;
36475;SDS011;56615;42.682;23.364;2023-07-16T14:18:35;11.77;;;6.80;;
36475;SDS011;56615;42.682;23.364;2023-07-16T14:21:17;10.07;;;6.35;;
36475;SDS011;56615;42.682;23.364;2023-07-16T14:23:49;11.35;;;5.97;;
36475;SDS011;56615;42.682;23.364;2023-07-16T14:26:14;9.93;;;6.22;;
36475;SDS011;56615;42.682;23.364;2023-07-16T14:28:45;11.63;;;6.32;;
36475;SDS011;56615;42.682;23.364;2023-07-16T14:31:12;10.13;;;6.65;;
36475;SDS011;56615;42.682;23.364;2023-07-16T14:34:17;12.75;;;7.50;;
36475;SDS011;56615;42.682;23.364;2023-07-16T14:36:49;9.80;;;6.28;;
36475;SDS011;56615;42.682;23.364;2023-07-16T14:39:15;12.55;;;6.43;;
36475;SDS011;56615;42.682;23.364;2023-07-16T14:41:47;10.15;;;6.20;;
36475;SDS011;56615;42.682;23.364;2023-07-16T14:44:18;11.63;;;6.20;;
36475;SDS011;56615;42.682;23.364;2023-07-16T14:46:49;11.48;;;6.32;;
36475;SDS011;56615;42.682;23.364;2023-07-16T14:49:17;13.57;;;6.53;;
36475;SDS011;56615;42.682;23.364;2023-07-16T14:51:46;9.48;;;6.05;;
36475;SDS011;56615;42.682;23.364;2023-07-16T14:54:13;9.23;;;6.07;;
36475;SDS011;56615;42.682;23.364;2023-07-16T14:56:45;9.32;;;6.30;;